sensor_id;sensor_type;location;lat;lon;timestamp;temperature;humidity
18876;DHT22;9570;50.854;13.778;2023-07-22T00:02:17;14.20;99.90
18876;DHT22;9570;50.854;13.778;2023-07-22T00:04:43;14.20;99.90
18876;DHT22;9570;50.854;13.778;2023-07-22T00:07:09;14.10;99.90
18876;DHT22;9570;50.854;13.778;2023-07-22T00:09:34;14.00;99.90
18876;DHT22;9570;50.854;13.778;2023-07-22T00:12:00;13.90;99.90
18876;DHT22;9570;50.854;13.778;2023-07-22T00:14:25;13.90;99.90
18876;DHT22;9570;50.854;13.778;2023-07-22T00:16:51;13.80;99.90
18876;DHT22;9570;50.854;13.778;2023-07-22T00:19:16;13.80;99.90
18876;DHT22;9570;50.854;13.778;2023-07-22T00:21:42;13.90;99.90
18876;DHT22;9570;50.854;13.778;2023-07-22T00:24:07;13.90;99.90
18876;DHT22;9570;50.854;13.778;2023-07-22T00:26:33;13.80;99.90
18876;DHT22;9570;50.854;13.778;2023-07-22T00:28:59;13.70;99.90
18876;DHT22;9570;50.854;13.778;2023-07-22T00:31:24;13.80;99.90
18876;DHT22;9570;50.854;13.778;2023-07-22T00:33:50;13.80;99.90
18876;DHT22;9570;50.854;13.778;2023-07-22T00:36:15;13.80;99.90
18876;DHT22;9570;50.854;13.778;2023-07-22T00:38:41;13.80;99.90
18876;DHT22;9570;50.854;13.778;2023-07-22T00:41:06;13.90;99.90
18876;DHT22;9570;50.854;13.778;2023-07-22T00:43:32;13.90;99.90
18876;DHT22;9570;50.854;13.778;2023-07-22T00:45:58;13.90;99.90
18876;DHT22;9570;50.854;13.778;2023-07-22T00:48:24;13.90;99.90
18876;DHT22;9570;50.854;13.778;2023-07-22T00:50:50;13.90;99.90
18876;DHT22;9570;50.854;13.778;2023-07-22T00:53:15;13.90;99.90
18876;DHT22;9570;50.854;13.778;2023-07-22T00:55:41;13.90;99.90
18876;DHT22;9570;50.854;13.778;2023-07-22T00:58:07;13.90;99.90
18876;DHT22;9570;50.854;13.778;2023-07-22T01:00:33;13.90;99.90
18876;DHT22;9570;50.854;13.778;2023-07-22T01:02:59;13.90;99.90
18876;DHT22;9570;50.854;13.778;2023-07-22T01:05:26;13.90;99.90
18876;DHT22;9570;50.854;13.778;2023-07-22T01:07:52;13.70;99.90
18876;DHT22;9570;50.854;13.778;2023-07-22T01:10:18;13.70;99.90
18876;DHT22;9570;50.854;13.778;2023-07-22T01:12:44;13.60;99.90
18876;DHT22;9570;50.854;13.778;2023-07-22T01:15:10;13.60;99.90
18876;DHT22;9570;50.854;13.778;2023-07-22T01:17:39;13.60;99.90
18876;DHT22;9570;50.854;13.778;2023-07-22T01:20:05;13.60;99.90
18876;DHT22;9570;50.854;13.778;2023-07-22T01:22:33;13.70;99.90
18876;DHT22;9570;50.854;13.778;2023-07-22T01:24:59;13.60;99.90
18876;DHT22;9570;50.854;13.778;2023-07-22T01:27:25;13.60;99.90
18876;DHT22;9570;50.854;13.778;2023-07-22T01:29:51;13.50;99.90
18876;DHT22;9570;50.854;13.778;2023-07-22T01:32:17;13.40;99.90
18876;DHT22;9570;50.854;13.778;2023-07-22T01:34:43;13.40;99.90
18876;DHT22;9570;50.854;13.778;2023-07-22T01:37:09;13.50;99.90
18876;DHT22;9570;50.854;13.778;2023-07-22T01:39:37;13.50;99.90
18876;DHT22;9570;50.854;13.778;2023-07-22T01:42:03;13.60;99.90
18876;DHT22;9570;50.854;13.778;2023-07-22T01:44:29;13.60;99.90
18876;DHT22;9570;50.854;13.778;2023-07-22T01:46:55;13.50;99.90
18876;DHT22;9570;50.854;13.778;2023-07-22T01:49:20;13.60;99.90
18876;DHT22;9570;50.854;13.778;2023-07-22T01:51:46;13.60;99.90
18876;DHT22;9570;50.854;13.778;2023-07-22T01:54:12;13.60;99.90
18876;DHT22;9570;50.854;13.778;2023-07-22T01:56:38;13.60;99.90
18876;DHT22;9570;50.854;13.778;2023-07-22T01:59:04;13.50;99.90
18876;DHT22;9570;50.854;13.778;2023-07-22T02:01:30;13.60;99.90
18876;DHT22;9570;50.854;13.778;2023-07-22T02:03:56;13.60;99.90
18876;DHT22;9570;50.854;13.778;2023-07-22T02:06:22;13.60;99.90
18876;DHT22;9570;50.854;13.778;2023-07-22T02:08:47;13.60;99.90
18876;DHT22;9570;50.854;13.778;2023-07-22T02:11:13;13.50;99.90
18876;DHT22;9570;50.854;13.778;2023-07-22T02:13:38;13.50;99.90
18876;DHT22;9570;50.854;13.778;2023-07-22T02:16:04;13.50;99.90
18876;DHT22;9570;50.854;13.778;2023-07-22T02:18:30;13.50;99.90
18876;DHT22;9570;50.854;13.778;2023-07-22T02:20:56;13.50;99.90
18876;DHT22;9570;50.854;13.778;2023-07-22T02:23:23;13.50;99.90
18876;DHT22;9570;50.854;13.778;2023-07-22T02:25:49;13.40;99.90
18876;DHT22;9570;50.854;13.778;2023-07-22T02:28:15;13.50;99.90
18876;DHT22;9570;50.854;13.778;2023-07-22T02:30:41;13.40;99.90
18876;DHT22;9570;50.854;13.778;2023-07-22T02:33:08;13.40;99.90
18876;DHT22;9570;50.854;13.778;2023-07-22T02:35:33;13.40;99.90
18876;DHT22;9570;50.854;13.778;2023-07-22T02:37:59;13.30;99.90
18876;DHT22;9570;50.854;13.778;2023-07-22T02:40:24;13.30;99.90
18876;DHT22;9570;50.854;13.778;2023-07-22T02:42:50;13.30;99.90
18876;DHT22;9570;50.854;13.778;2023-07-22T02:45:15;13.20;99.90
18876;DHT22;9570;50.854;13.778;2023-07-22T02:47:41;13.10;99.90
18876;DHT22;9570;50.854;13.778;2023-07-22T02:50:07;13.10;99.90
18876;DHT22;9570;50.854;13.778;2023-07-22T02:52:33;13.10;99.90
18876;DHT22;9570;50.854;13.778;2023-07-22T02:55:15;13.20;99.90
18876;DHT22;9570;50.854;13.778;2023-07-22T02:57:44;13.20;99.90
18876;DHT22;9570;50.854;13.778;2023-07-22T03:00:11;13.10;99.90
18876;DHT22;9570;50.854;13.778;2023-07-22T03:02:38;13.10;99.90
18876;DHT22;9570;50.854;13.778;2023-07-22T03:05:05;13.10;99.90
18876;DHT22;9570;50.854;13.778;2023-07-22T03:07:34;13.10;99.90
18876;DHT22;9570;50.854;13.778;2023-07-22T03:09:59;13.00;99.90
18876;DHT22;9570;50.854;13.778;2023-07-22T03:12:25;13.00;99.90
18876;DHT22;9570;50.854;13.778;2023-07-22T03:14:51;12.90;99.90
18876;DHT22;9570;50.854;13.778;2023-07-22T03:17:18;13.00;99.90
18876;DHT22;9570;50.854;13.778;2023-07-22T03:19:43;13.00;99.90
18876;DHT22;9570;50.854;13.778;2023-07-22T03:22:09;13.00;99.90
18876;DHT22;9570;50.854;13.778;2023-07-22T03:24:35;13.00;99.90
18876;DHT22;9570;50.854;13.778;2023-07-22T03:27:00;12.90;99.90
18876;DHT22;9570;50.854;13.778;2023-07-22T03:29:26;12.80;99.90
18876;DHT22;9570;50.854;13.778;2023-07-22T03:31:53;12.90;99.90
18876;DHT22;9570;50.854;13.778;2023-07-22T03:34:18;12.90;99.90
18876;DHT22;9570;50.854;13.778;2023-07-22T03:36:44;12.90;99.90
18876;DHT22;9570;50.854;13.778;2023-07-22T03:39:09;13.00;99.90
18876;DHT22;9570;50.854;13.778;2023-07-22T03:41:35;13.00;99.90
18876;DHT22;9570;50.854;13.778;2023-07-22T03:44:00;13.00;99.90
18876;DHT22;9570;50.854;13.778;2023-07-22T03:46:25;13.00;99.90
18876;DHT22;9570;50.854;13.778;2023-07-22T03:48:51;13.00;99.90
18876;DHT22;9570;50.854;13.778;2023-07-22T03:51:17;12.90;99.90
18876;DHT22;9570;50.854;13.778;2023-07-22T03:53:42;12.80;99.90
18876;DHT22;9570;50.854;13.778;2023-07-22T03:56:08;12.80;99.90
18876;DHT22;9570;50.854;13.778;2023-07-22T03:58:33;12.90;99.90
18876;DHT22;9570;50.854;13.778;2023-07-22T04:00:59;12.90;99.90
18876;DHT22;9570;50.854;13.778;2023-07-22T04:03:24;12.90;99.90
18876;DHT22;9570;50.854;13.778;2023-07-22T04:05:54;12.90;99.90
18876;DHT22;9570;50.854;13.778;2023-07-22T04:08:20;13.00;99.90
18876;DHT22;9570;50.854;13.778;2023-07-22T04:10:55;13.00;99.90
18876;DHT22;9570;50.854;13.778;2023-07-22T04:13:22;13.00;99.90
18876;DHT22;9570;50.854;13.778;2023-07-22T04:15:48;13.00;99.90
18876;DHT22;9570;50.854;13.778;2023-07-22T04:18:17;13.00;99.90
18876;DHT22;9570;50.854;13.778;2023-07-22T04:20:43;13.10;99.90
18876;DHT22;9570;50.854;13.778;2023-07-22T04:23:09;13.10;99.90
18876;DHT22;9570;50.854;13.778;2023-07-22T04:25:42;13.20;99.90
18876;DHT22;9570;50.854;13.778;2023-07-22T04:28:08;13.30;99.90
18876;DHT22;9570;50.854;13.778;2023-07-22T04:30:35;13.30;99.90
18876;DHT22;9570;50.854;13.778;2023-07-22T04:33:00;13.40;99.90
18876;DHT22;9570;50.854;13.778;2023-07-22T04:35:26;13.40;99.90
18876;DHT22;9570;50.854;13.778;2023-07-22T04:37:51;13.50;99.90
18876;DHT22;9570;50.854;13.778;2023-07-22T04:40:17;13.50;99.90
18876;DHT22;9570;50.854;13.778;2023-07-22T04:42:44;13.50;99.90
18876;DHT22;9570;50.854;13.778;2023-07-22T04:45:10;13.60;99.90
18876;DHT22;9570;50.854;13.778;2023-07-22T04:47:39;13.60;99.90
18876;DHT22;9570;50.854;13.778;2023-07-22T04:50:07;13.60;99.90
18876;DHT22;9570;50.854;13.778;2023-07-22T04:52:36;13.60;99.90
18876;DHT22;9570;50.854;13.778;2023-07-22T04:55:02;13.70;99.90
18876;DHT22;9570;50.854;13.778;2023-07-22T04:57:43;13.70;99.90
18876;DHT22;9570;50.854;13.778;2023-07-22T05:00:12;13.90;99.90
18876;DHT22;9570;50.854;13.778;2023-07-22T05:02:40;14.00;99.90
18876;DHT22;9570;50.854;13.778;2023-07-22T05:05:06;14.00;99.90
18876;DHT22;9570;50.854;13.778;2023-07-22T05:07:32;14.20;99.90
18876;DHT22;9570;50.854;13.778;2023-07-22T05:09:57;14.30;99.90
18876;DHT22;9570;50.854;13.778;2023-07-22T05:12:23;14.40;99.90
18876;DHT22;9570;50.854;13.778;2023-07-22T05:14:49;14.40;99.90
18876;DHT22;9570;50.854;13.778;2023-07-22T05:17:15;14.50;99.90
18876;DHT22;9570;50.854;13.778;2023-07-22T05:19:40;14.50;99.90
18876;DHT22;9570;50.854;13.778;2023-07-22T05:22:06;14.40;99.90
18876;DHT22;9570;50.854;13.778;2023-07-22T05:24:32;14.50;99.90
18876;DHT22;9570;50.854;13.778;2023-07-22T05:26:58;14.60;99.90
18876;DHT22;9570;50.854;13.778;2023-07-22T05:29:23;14.70;99.90
18876;DHT22;9570;50.854;13.778;2023-07-22T05:31:48;14.80;99.90
18876;DHT22;9570;50.854;13.778;2023-07-22T05:34:14;14.90;99.90
18876;DHT22;9570;50.854;13.778;2023-07-22T05:36:39;14.90;99.90
18876;DHT22;9570;50.854;13.778;2023-07-22T05:39:05;15.00;99.90
18876;DHT22;9570;50.854;13.778;2023-07-22T05:41:33;15.10;99.90
18876;DHT22;9570;50.854;13.778;2023-07-22T05:43:58;15.20;99.90
18876;DHT22;9570;50.854;13.778;2023-07-22T05:46:24;15.10;99.90
18876;DHT22;9570;50.854;13.778;2023-07-22T05:48:49;15.10;99.90
18876;DHT22;9570;50.854;13.778;2023-07-22T05:51:15;15.20;99.90
18876;DHT22;9570;50.854;13.778;2023-07-22T05:53:40;15.20;99.90
18876;DHT22;9570;50.854;13.778;2023-07-22T05:56:06;15.30;99.90
18876;DHT22;9570;50.854;13.778;2023-07-22T05:58:31;15.30;99.90
18876;DHT22;9570;50.854;13.778;2023-07-22T06:00:57;15.40;99.90
18876;DHT22;9570;50.854;13.778;2023-07-22T06:03:23;15.90;99.90
18876;DHT22;9570;50.854;13.778;2023-07-22T06:05:48;16.60;99.90
18876;DHT22;9570;50.854;13.778;2023-07-22T06:08:14;17.00;99.90
18876;DHT22;9570;50.854;13.778;2023-07-22T06:10:42;17.50;99.90
18876;DHT22;9570;50.854;13.778;2023-07-22T06:13:08;17.50;99.90
18876;DHT22;9570;50.854;13.778;2023-07-22T06:15:34;17.10;99.90
18876;DHT22;9570;50.854;13.778;2023-07-22T06:18:00;17.50;99.90
18876;DHT22;9570;50.854;13.778;2023-07-22T06:20:26;18.00;99.90
18876;DHT22;9570;50.854;13.778;2023-07-22T06:22:52;18.50;99.90
18876;DHT22;9570;50.854;13.778;2023-07-22T06:25:17;19.00;99.90
18876;DHT22;9570;50.854;13.778;2023-07-22T06:27:43;19.10;99.90
18876;DHT22;9570;50.854;13.778;2023-07-22T06:30:09;18.90;99.90
18876;DHT22;9570;50.854;13.778;2023-07-22T06:32:37;18.50;99.90
18876;DHT22;9570;50.854;13.778;2023-07-22T06:35:02;18.50;99.90
18876;DHT22;9570;50.854;13.778;2023-07-22T06:37:28;18.70;99.90
18876;DHT22;9570;50.854;13.778;2023-07-22T06:39:54;18.10;99.90
18876;DHT22;9570;50.854;13.778;2023-07-22T06:42:19;17.80;99.90
18876;DHT22;9570;50.854;13.778;2023-07-22T06:44:45;18.10;99.90
18876;DHT22;9570;50.854;13.778;2023-07-22T06:47:10;18.20;99.90
18876;DHT22;9570;50.854;13.778;2023-07-22T06:49:36;18.20;99.90
18876;DHT22;9570;50.854;13.778;2023-07-22T06:52:01;18.80;99.90
18876;DHT22;9570;50.854;13.778;2023-07-22T06:54:27;19.20;99.90
18876;DHT22;9570;50.854;13.778;2023-07-22T06:56:53;19.20;99.90
18876;DHT22;9570;50.854;13.778;2023-07-22T06:59:18;19.70;99.90
18876;DHT22;9570;50.854;13.778;2023-07-22T07:01:44;19.60;99.90
18876;DHT22;9570;50.854;13.778;2023-07-22T07:04:09;20.00;99.90
18876;DHT22;9570;50.854;13.778;2023-07-22T07:06:36;20.30;99.90
18876;DHT22;9570;50.854;13.778;2023-07-22T07:09:04;20.40;99.90
18876;DHT22;9570;50.854;13.778;2023-07-22T07:11:30;20.50;99.90
18876;DHT22;9570;50.854;13.778;2023-07-22T07:13:56;20.60;99.90
18876;DHT22;9570;50.854;13.778;2023-07-22T07:16:27;20.50;99.90
18876;DHT22;9570;50.854;13.778;2023-07-22T07:18:53;21.00;99.90
18876;DHT22;9570;50.854;13.778;2023-07-22T07:21:19;21.50;99.90
18876;DHT22;9570;50.854;13.778;2023-07-22T07:23:45;21.20;99.90
18876;DHT22;9570;50.854;13.778;2023-07-22T07:26:11;20.50;99.90
18876;DHT22;9570;50.854;13.778;2023-07-22T07:28:37;20.50;99.90
18876;DHT22;9570;50.854;13.778;2023-07-22T07:31:02;20.60;99.90
18876;DHT22;9570;50.854;13.778;2023-07-22T07:33:28;19.90;99.90
18876;DHT22;9570;50.854;13.778;2023-07-22T07:35:54;19.40;99.90
18876;DHT22;9570;50.854;13.778;2023-07-22T07:38:19;19.60;99.90
18876;DHT22;9570;50.854;13.778;2023-07-22T07:40:45;19.70;99.90
18876;DHT22;9570;50.854;13.778;2023-07-22T07:43:10;19.30;99.90
18876;DHT22;9570;50.854;13.778;2023-07-22T07:45:38;19.00;99.90
18876;DHT22;9570;50.854;13.778;2023-07-22T07:48:05;19.40;99.90
18876;DHT22;9570;50.854;13.778;2023-07-22T07:50:30;20.00;99.90
18876;DHT22;9570;50.854;13.778;2023-07-22T07:52:56;19.40;99.90
18876;DHT22;9570;50.854;13.778;2023-07-22T07:55:21;19.00;99.90
18876;DHT22;9570;50.854;13.778;2023-07-22T07:57:47;19.20;99.90
18876;DHT22;9570;50.854;13.778;2023-07-22T08:00:12;19.60;99.90
18876;DHT22;9570;50.854;13.778;2023-07-22T08:02:38;19.70;99.90
18876;DHT22;9570;50.854;13.778;2023-07-22T08:05:04;19.90;99.90
18876;DHT22;9570;50.854;13.778;2023-07-22T08:07:30;19.80;99.90
18876;DHT22;9570;50.854;13.778;2023-07-22T08:09:56;19.90;99.90
18876;DHT22;9570;50.854;13.778;2023-07-22T08:12:23;20.30;99.90
18876;DHT22;9570;50.854;13.778;2023-07-22T08:14:48;20.40;99.90
18876;DHT22;9570;50.854;13.778;2023-07-22T08:17:14;19.70;99.90
18876;DHT22;9570;50.854;13.778;2023-07-22T08:19:39;19.40;99.90
18876;DHT22;9570;50.854;13.778;2023-07-22T08:22:05;19.30;99.90
18876;DHT22;9570;50.854;13.778;2023-07-22T08:24:31;19.30;99.90
18876;DHT22;9570;50.854;13.778;2023-07-22T08:26:57;19.70;99.90
18876;DHT22;9570;50.854;13.778;2023-07-22T08:29:24;19.70;99.90
18876;DHT22;9570;50.854;13.778;2023-07-22T08:31:49;19.70;99.90
18876;DHT22;9570;50.854;13.778;2023-07-22T08:34:15;19.40;99.90
18876;DHT22;9570;50.854;13.778;2023-07-22T08:36:41;19.10;99.90
18876;DHT22;9570;50.854;13.778;2023-07-22T08:39:06;19.20;99.90
18876;DHT22;9570;50.854;13.778;2023-07-22T08:41:33;19.20;99.90
18876;DHT22;9570;50.854;13.778;2023-07-22T08:44:00;19.10;99.90
18876;DHT22;9570;50.854;13.778;2023-07-22T08:46:28;18.90;99.90
18876;DHT22;9570;50.854;13.778;2023-07-22T08:48:59;18.70;99.90
18876;DHT22;9570;50.854;13.778;2023-07-22T08:51:26;19.20;99.90
18876;DHT22;9570;50.854;13.778;2023-07-22T08:53:56;19.70;99.90
18876;DHT22;9570;50.854;13.778;2023-07-22T08:56:24;20.20;99.90
18876;DHT22;9570;50.854;13.778;2023-07-22T08:58:51;20.40;99.90
18876;DHT22;9570;50.854;13.778;2023-07-22T09:01:17;20.60;99.90
18876;DHT22;9570;50.854;13.778;2023-07-22T09:03:43;20.70;99.90
18876;DHT22;9570;50.854;13.778;2023-07-22T09:06:09;20.70;99.90
18876;DHT22;9570;50.854;13.778;2023-07-22T09:08:35;20.80;99.90
18876;DHT22;9570;50.854;13.778;2023-07-22T09:11:02;20.80;99.90
18876;DHT22;9570;50.854;13.778;2023-07-22T09:13:28;20.60;99.90
18876;DHT22;9570;50.854;13.778;2023-07-22T09:15:56;20.50;99.90
18876;DHT22;9570;50.854;13.778;2023-07-22T09:18:22;20.40;99.90
18876;DHT22;9570;50.854;13.778;2023-07-22T09:20:47;20.10;99.90
18876;DHT22;9570;50.854;13.778;2023-07-22T09:23:13;19.90;99.90
18876;DHT22;9570;50.854;13.778;2023-07-22T09:25:40;19.70;99.90
18876;DHT22;9570;50.854;13.778;2023-07-22T09:28:05;19.90;99.90
18876;DHT22;9570;50.854;13.778;2023-07-22T09:30:33;19.90;99.90
18876;DHT22;9570;50.854;13.778;2023-07-22T09:33:01;19.90;99.90
18876;DHT22;9570;50.854;13.778;2023-07-22T09:35:44;19.90;99.90
18876;DHT22;9570;50.854;13.778;2023-07-22T09:38:10;20.00;99.90
18876;DHT22;9570;50.854;13.778;2023-07-22T09:40:35;20.30;99.90
18876;DHT22;9570;50.854;13.778;2023-07-22T09:43:02;20.80;99.90
18876;DHT22;9570;50.854;13.778;2023-07-22T09:45:30;21.30;99.90
18876;DHT22;9570;50.854;13.778;2023-07-22T09:47:56;21.80;99.90
18876;DHT22;9570;50.854;13.778;2023-07-22T09:50:23;21.60;99.90
18876;DHT22;9570;50.854;13.778;2023-07-22T09:52:51;21.70;99.90
18876;DHT22;9570;50.854;13.778;2023-07-22T09:55:23;22.10;99.90
18876;DHT22;9570;50.854;13.778;2023-07-22T09:58:02;22.00;99.90
18876;DHT22;9570;50.854;13.778;2023-07-22T10:00:29;22.20;99.90
18876;DHT22;9570;50.854;13.778;2023-07-22T10:02:59;22.10;99.90
18876;DHT22;9570;50.854;13.778;2023-07-22T10:05:26;22.50;99.90
18876;DHT22;9570;50.854;13.778;2023-07-22T10:07:55;22.50;99.90
18876;DHT22;9570;50.854;13.778;2023-07-22T10:10:26;22.70;99.90
18876;DHT22;9570;50.854;13.778;2023-07-22T10:12:53;22.70;99.90
18876;DHT22;9570;50.854;13.778;2023-07-22T10:15:19;22.30;99.90
18876;DHT22;9570;50.854;13.778;2023-07-22T10:17:45;22.00;99.90
18876;DHT22;9570;50.854;13.778;2023-07-22T10:20:12;21.30;99.90
18876;DHT22;9570;50.854;13.778;2023-07-22T10:22:42;20.90;99.90
18876;DHT22;9570;50.854;13.778;2023-07-22T10:25:11;20.70;99.90
18876;DHT22;9570;50.854;13.778;2023-07-22T10:27:36;20.60;99.90
18876;DHT22;9570;50.854;13.778;2023-07-22T10:30:05;20.50;99.90
18876;DHT22;9570;50.854;13.778;2023-07-22T10:32:44;20.70;99.90
18876;DHT22;9570;50.854;13.778;2023-07-22T10:36:02;21.10;99.90
18876;DHT22;9570;50.854;13.778;2023-07-22T10:38:10;20.90;99.90
18876;DHT22;9570;50.854;13.778;2023-07-22T10:43:11;22.00;99.90
18876;DHT22;9570;50.854;13.778;2023-07-22T10:45:42;22.10;99.90
18876;DHT22;9570;50.854;13.778;2023-07-22T10:48:12;22.20;99.90
18876;DHT22;9570;50.854;13.778;2023-07-22T10:50:46;22.20;99.90
18876;DHT22;9570;50.854;13.778;2023-07-22T10:53:14;21.80;99.90
18876;DHT22;9570;50.854;13.778;2023-07-22T10:56:03;21.60;99.90
18876;DHT22;9570;50.854;13.778;2023-07-22T11:06:37;21.30;99.90
18876;DHT22;9570;50.854;13.778;2023-07-22T11:09:02;21.00;99.90
18876;DHT22;9570;50.854;13.778;2023-07-22T11:11:39;20.80;99.90
18876;DHT22;9570;50.854;13.778;2023-07-22T11:14:17;21.00;99.90
18876;DHT22;9570;50.854;13.778;2023-07-22T11:16:45;21.00;99.90
18876;DHT22;9570;50.854;13.778;2023-07-22T11:19:13;20.80;99.90
18876;DHT22;9570;50.854;13.778;2023-07-22T11:21:39;20.70;99.90
18876;DHT22;9570;50.854;13.778;2023-07-22T11:24:06;20.80;99.90
18876;DHT22;9570;50.854;13.778;2023-07-22T11:26:32;20.70;99.90
18876;DHT22;9570;50.854;13.778;2023-07-22T11:29:00;20.80;99.90
18876;DHT22;9570;50.854;13.778;2023-07-22T11:31:31;20.80;99.90
18876;DHT22;9570;50.854;13.778;2023-07-22T11:33:58;20.60;99.90
18876;DHT22;9570;50.854;13.778;2023-07-22T11:36:24;20.60;99.90
18876;DHT22;9570;50.854;13.778;2023-07-22T11:38:50;20.60;99.90
18876;DHT22;9570;50.854;13.778;2023-07-22T11:41:15;20.90;99.90
18876;DHT22;9570;50.854;13.778;2023-07-22T11:43:41;21.30;99.90
18876;DHT22;9570;50.854;13.778;2023-07-22T11:46:06;21.40;99.90
18876;DHT22;9570;50.854;13.778;2023-07-22T11:48:32;21.40;99.90
18876;DHT22;9570;50.854;13.778;2023-07-22T11:51:00;21.50;99.90
18876;DHT22;9570;50.854;13.778;2023-07-22T11:53:27;21.60;99.90
18876;DHT22;9570;50.854;13.778;2023-07-22T11:55:54;21.70;99.90
18876;DHT22;9570;50.854;13.778;2023-07-22T11:58:26;21.50;99.90
18876;DHT22;9570;50.854;13.778;2023-07-22T12:01:10;21.50;99.90
18876;DHT22;9570;50.854;13.778;2023-07-22T12:03:36;21.30;99.90
18876;DHT22;9570;50.854;13.778;2023-07-22T12:06:03;21.30;99.90
18876;DHT22;9570;50.854;13.778;2023-07-22T12:08:28;21.20;99.90
18876;DHT22;9570;50.854;13.778;2023-07-22T12:10:58;21.10;99.90
18876;DHT22;9570;50.854;13.778;2023-07-22T12:13:23;21.10;99.90
18876;DHT22;9570;50.854;13.778;2023-07-22T12:16:03;21.30;99.90
18876;DHT22;9570;50.854;13.778;2023-07-22T12:21:08;21.40;99.90
18876;DHT22;9570;50.854;13.778;2023-07-22T12:23:35;21.30;99.90
18876;DHT22;9570;50.854;13.778;2023-07-22T12:26:01;21.20;99.90
18876;DHT22;9570;50.854;13.778;2023-07-22T12:28:27;21.20;99.90
18876;DHT22;9570;50.854;13.778;2023-07-22T12:30:52;21.20;99.90
18876;DHT22;9570;50.854;13.778;2023-07-22T12:33:18;21.30;99.90
18876;DHT22;9570;50.854;13.778;2023-07-22T12:35:43;21.30;99.90
18876;DHT22;9570;50.854;13.778;2023-07-22T12:38:08;21.30;99.90
18876;DHT22;9570;50.854;13.778;2023-07-22T12:40:34;21.50;99.90
18876;DHT22;9570;50.854;13.778;2023-07-22T12:42:59;21.20;99.90
18876;DHT22;9570;50.854;13.778;2023-07-22T12:45:25;21.00;99.90
18876;DHT22;9570;50.854;13.778;2023-07-22T12:47:50;21.00;99.90
18876;DHT22;9570;50.854;13.778;2023-07-22T12:50:16;21.00;99.90
18876;DHT22;9570;50.854;13.778;2023-07-22T12:52:41;20.90;99.90
18876;DHT22;9570;50.854;13.778;2023-07-22T12:55:07;21.00;99.90
18876;DHT22;9570;50.854;13.778;2023-07-22T12:57:33;21.20;99.90
18876;DHT22;9570;50.854;13.778;2023-07-22T12:59:58;21.30;99.90
18876;DHT22;9570;50.854;13.778;2023-07-22T13:02:24;21.40;99.90
18876;DHT22;9570;50.854;13.778;2023-07-22T13:04:50;21.40;99.90
18876;DHT22;9570;50.854;13.778;2023-07-22T13:07:16;21.30;99.90
18876;DHT22;9570;50.854;13.778;2023-07-22T13:09:42;21.40;99.90
18876;DHT22;9570;50.854;13.778;2023-07-22T13:12:08;21.50;99.90
18876;DHT22;9570;50.854;13.778;2023-07-22T13:14:34;21.60;99.90
18876;DHT22;9570;50.854;13.778;2023-07-22T13:17:00;21.50;99.90
18876;DHT22;9570;50.854;13.778;2023-07-22T13:19:25;21.50;99.90
18876;DHT22;9570;50.854;13.778;2023-07-22T13:21:51;21.40;99.90
18876;DHT22;9570;50.854;13.778;2023-07-22T13:24:16;21.50;99.90
18876;DHT22;9570;50.854;13.778;2023-07-22T13:26:42;21.40;99.90
18876;DHT22;9570;50.854;13.778;2023-07-22T13:29:08;21.40;99.90
18876;DHT22;9570;50.854;13.778;2023-07-22T13:31:34;21.40;99.90
18876;DHT22;9570;50.854;13.778;2023-07-22T13:33:59;21.50;99.90
18876;DHT22;9570;50.854;13.778;2023-07-22T13:36:25;21.50;99.90
18876;DHT22;9570;50.854;13.778;2023-07-22T13:38:50;21.40;99.90
18876;DHT22;9570;50.854;13.778;2023-07-22T13:41:16;21.60;99.90
18876;DHT22;9570;50.854;13.778;2023-07-22T13:43:41;21.90;99.90
18876;DHT22;9570;50.854;13.778;2023-07-22T13:46:07;22.10;99.90
18876;DHT22;9570;50.854;13.778;2023-07-22T13:48:33;22.30;99.90
18876;DHT22;9570;50.854;13.778;2023-07-22T13:50:59;22.00;99.90
18876;DHT22;9570;50.854;13.778;2023-07-22T13:53:24;21.80;99.90
18876;DHT22;9570;50.854;13.778;2023-07-22T13:55:50;21.80;99.90
18876;DHT22;9570;50.854;13.778;2023-07-22T13:58:15;21.50;99.90
18876;DHT22;9570;50.854;13.778;2023-07-22T14:00:41;21.40;99.90
18876;DHT22;9570;50.854;13.778;2023-07-22T14:03:06;21.40;99.90
18876;DHT22;9570;50.854;13.778;2023-07-22T14:05:32;21.20;99.90
18876;DHT22;9570;50.854;13.778;2023-07-22T14:07:58;21.10;99.90
18876;DHT22;9570;50.854;13.778;2023-07-22T14:10:23;21.00;99.90
18876;DHT22;9570;50.854;13.778;2023-07-22T14:12:49;21.30;99.90
18876;DHT22;9570;50.854;13.778;2023-07-22T14:15:14;21.60;99.90
18876;DHT22;9570;50.854;13.778;2023-07-22T14:17:40;21.70;99.90
18876;DHT22;9570;50.854;13.778;2023-07-22T14:20:06;21.70;99.90
18876;DHT22;9570;50.854;13.778;2023-07-22T14:22:32;21.90;99.90
18876;DHT22;9570;50.854;13.778;2023-07-22T14:24:58;22.00;99.90
18876;DHT22;9570;50.854;13.778;2023-07-22T14:27:23;22.10;99.90
18876;DHT22;9570;50.854;13.778;2023-07-22T14:29:49;21.90;99.90
18876;DHT22;9570;50.854;13.778;2023-07-22T14:32:14;22.00;99.90
18876;DHT22;9570;50.854;13.778;2023-07-22T14:34:42;22.00;99.90
18876;DHT22;9570;50.854;13.778;2023-07-22T14:37:07;22.20;99.90
18876;DHT22;9570;50.854;13.778;2023-07-22T14:39:33;22.20;99.90
18876;DHT22;9570;50.854;13.778;2023-07-22T14:41:58;22.00;99.90
18876;DHT22;9570;50.854;13.778;2023-07-22T14:44:24;21.90;99.90
18876;DHT22;9570;50.854;13.778;2023-07-22T14:46:49;21.90;99.90
18876;DHT22;9570;50.854;13.778;2023-07-22T14:49:15;22.00;99.90
18876;DHT22;9570;50.854;13.778;2023-07-22T14:51:40;22.00;99.90
18876;DHT22;9570;50.854;13.778;2023-07-22T14:54:06;22.10;99.90
18876;DHT22;9570;50.854;13.778;2023-07-22T14:56:32;22.20;99.90
18876;DHT22;9570;50.854;13.778;2023-07-22T14:58:57;22.20;99.90
18876;DHT22;9570;50.854;13.778;2023-07-22T15:01:23;22.10;99.90
18876;DHT22;9570;50.854;13.778;2023-07-22T15:03:48;22.00;99.90
18876;DHT22;9570;50.854;13.778;2023-07-22T15:06:14;22.00;99.90
18876;DHT22;9570;50.854;13.778;2023-07-22T15:08:39;22.00;99.90
18876;DHT22;9570;50.854;13.778;2023-07-22T15:11:05;22.00;99.90
18876;DHT22;9570;50.854;13.778;2023-07-22T15:13:30;22.00;99.90
18876;DHT22;9570;50.854;13.778;2023-07-22T15:15:56;22.10;99.90
18876;DHT22;9570;50.854;13.778;2023-07-22T15:18:22;21.80;99.90
18876;DHT22;9570;50.854;13.778;2023-07-22T15:20:51;21.60;99.90
18876;DHT22;9570;50.854;13.778;2023-07-22T15:23:18;21.50;99.90
18876;DHT22;9570;50.854;13.778;2023-07-22T15:25:43;21.50;99.90
18876;DHT22;9570;50.854;13.778;2023-07-22T15:28:09;21.40;99.90
18876;DHT22;9570;50.854;13.778;2023-07-22T15:30:34;21.30;99.90
18876;DHT22;9570;50.854;13.778;2023-07-22T15:33:00;21.40;99.90
18876;DHT22;9570;50.854;13.778;2023-07-22T15:35:25;21.40;99.90
18876;DHT22;9570;50.854;13.778;2023-07-22T15:37:51;21.50;99.90
18876;DHT22;9570;50.854;13.778;2023-07-22T15:40:18;21.50;99.90